Time;durP1;ratioP1;P1;durP2;ratioP2;P2;SDS_P1;SDS_P2;PMS_P1;PMS_P2;Temp;Humidity;BMP_temperature;BMP_pressure;BME280_temperature;BME280_humidity;BME280_pressure;Samples;Min_cycle;Max_cycle;Signal;HPM_P1;HPM_P2
2021/11/23 00:00:44;;;;;;;12.27;6.50;;;;;;;3.53;100.00;100016.66;1612850;88;21108;-73
2021/11/23 00:03:13;;;;;;;14.58;7.03;;;;;;;3.51;100.00;100019.45;1612448;88;21059;-74
2021/11/23 00:05:41;;;;;;;12.70;6.27;;;;;;;3.51;100.00;100019.95;1609853;88;21012;-74
2021/11/23 00:08:09;;;;;;;12.37;6.33;;;;;;;3.49;100.00;100024.55;1578994;89;21567;-75
2021/11/23 00:10:37;;;;;;;10.90;6.17;;;;;;;3.48;100.00;100022.87;1581911;88;21115;-74
2021/11/23 00:13:04;;;;;;;12.47;6.20;;;;;;;3.44;100.00;100028.95;1583720;88;21108;-74
2021/11/23 00:15:35;;;;;;;11.43;5.53;;;;;;;3.40;100.00;100027.02;1608036;88;21076;-73
2021/11/23 00:18:05;;;;;;;12.03;6.03;;;;;;;3.37;100.00;100024.59;1585520;89;21037;-74
2021/11/23 00:20:33;;;;;;;12.30;5.90;;;;;;;3.31;100.00;100023.77;1588353;88;21047;-73
2021/11/23 00:23:01;;;;;;;13.33;6.77;;;;;;;3.26;100.00;100021.95;1589366;89;21072;-73
2021/11/23 00:25:29;;;;;;;13.60;6.90;;;;;;;3.21;100.00;100024.98;1610713;87;21114;-73
2021/11/23 00:27:56;;;;;;;10.70;6.40;;;;;;;3.16;100.00;100023.16;1612134;87;21606;-75
2021/11/23 00:30:27;;;;;;;11.73;6.30;;;;;;;3.10;100.00;100024.14;1634192;87;21030;-74
2021/11/23 00:32:54;;;;;;;14.10;6.13;;;;;;;3.05;100.00;100032.55;1606207;87;21112;-74
2021/11/23 00:35:22;;;;;;;16.47;7.10;;;;;;;3.02;100.00;100030.11;1612068;87;21091;-73
2021/11/23 00:37:50;;;;;;;13.17;6.90;;;;;;;2.99;100.00;100031.22;1632550;87;21086;-74
2021/11/23 00:40:17;;;;;;;12.17;6.10;;;;;;;2.94;100.00;100024.52;1626100;87;21105;-75
2021/11/23 00:42:44;;;;;;;15.17;6.90;;;;;;;2.93;100.00;100029.02;1609234;87;21599;-75
2021/11/23 00:45:11;;;;;;;11.97;5.63;;;;;;;2.91;100.00;100028.30;1618532;87;21007;-75
2021/11/23 00:47:39;;;;;;;12.47;6.17;;;;;;;2.90;100.00;100031.92;1637579;87;21078;-75
2021/11/23 00:50:07;;;;;;;13.33;6.30;;;;;;;2.91;100.00;100028.80;1634278;87;21010;-75
2021/11/23 00:52:35;;;;;;;13.93;6.37;;;;;;;2.89;100.00;100030.25;1637580;87;21523;-74
2021/11/23 00:55:03;;;;;;;12.07;5.63;;;;;;;2.89;100.00;100030.74;1637248;87;21126;-74
2021/11/23 00:57:30;;;;;;;12.73;5.47;;;;;;;2.85;100.00;100030.98;1637525;87;21086;-75
2021/11/23 00:59:58;;;;;;;10.90;5.37;;;;;;;2.85;100.00;100033.65;1637388;87;21105;-75
2021/11/23 01:02:25;;;;;;;13.50;6.13;;;;;;;2.84;100.00;100035.94;1639044;87;21014;-75
2021/11/23 01:04:54;;;;;;;10.00;5.20;;;;;;;2.84;100.00;100038.61;1611835;87;21036;-74
2021/11/23 01:07:21;;;;;;;21.47;8.17;;;;;;;2.83;100.00;100038.27;1637705;87;21030;-75
2021/11/23 01:09:48;;;;;;;19.73;7.87;;;;;;;2.83;100.00;100031.59;1632050;87;21129;-74
2021/11/23 01:12:15;;;;;;;87.40;33.07;;;;;;;2.82;100.00;100033.88;1601140;87;21110;-75
2021/11/23 01:14:42;;;;;;;95.47;35.90;;;;;;;2.82;100.00;100029.03;1639080;87;21038;-73
2021/11/23 01:17:09;;;;;;;40.50;17.53;;;;;;;2.81;100.00;100038.00;1607808;87;21028;-74
2021/11/23 01:19:36;;;;;;;16.60;7.03;;;;;;;2.78;100.00;100035.11;1618936;87;21551;-74
2021/11/23 01:22:04;;;;;;;19.57;8.23;;;;;;;2.75;100.00;100031.83;1637384;87;21041;-74
2021/11/23 01:24:31;;;;;;;70.33;29.50;;;;;;;2.73;100.00;100036.45;1617648;87;21069;-74
2021/11/23 01:26:58;;;;;;;29.73;13.43;;;;;;;2.71;100.00;100039.70;1616457;87;21103;-74
2021/11/23 01:29:25;;;;;;;147.63;55.60;;;;;;;2.69;100.00;100043.81;1640165;87;21043;-74
2021/11/23 01:31:52;;;;;;;129.30;49.80;;;;;;;2.66;100.00;100044.08;1614234;86;21063;-75
2021/11/23 01:34:19;;;;;;;55.87;23.57;;;;;;;2.62;100.00;100043.47;1655296;86;21102;-74
2021/11/23 01:36:47;;;;;;;44.73;19.20;;;;;;;2.59;100.00;100042.37;1658259;86;21133;-74
2021/11/23 01:39:15;;;;;;;16.60;5.97;;;;;;;2.57;100.00;100044.80;1661090;86;21070;-75
2021/11/23 01:41:42;;;;;;;16.33;5.83;;;;;;;2.54;100.00;100045.88;1628276;86;21047;-74
2021/11/23 01:44:10;;;;;;;26.37;10.27;;;;;;;2.53;100.00;100043.32;1658049;86;21083;-74
2021/11/23 01:46:37;;;;;;;18.47;7.80;;;;;;;2.52;100.00;100039.81;1627203;86;21658;-74
2021/11/23 01:49:04;;;;;;;14.20;5.60;;;;;;;2.52;100.00;100038.97;1627068;86;21599;-74
2021/11/23 01:51:31;;;;;;;11.37;4.83;;;;;;;2.51;100.00;100043.93;1628200;86;21449;-74
2021/11/23 01:53:58;;;;;;;15.70;6.43;;;;;;;2.49;100.00;100037.37;1607956;86;21075;-74
2021/11/23 01:56:25;;;;;;;10.90;5.13;;;;;;;2.50;100.00;100039.55;1627991;86;21027;-74
2021/11/23 01:58:52;;;;;;;13.77;5.83;;;;;;;2.49;100.00;100033.86;1660929;86;21106;-74
2021/11/23 02:01:19;;;;;;;10.53;5.00;;;;;;;2.47;100.00;100039.32;1628923;86;21571;-74
2021/11/23 02:03:47;;;;;;;18.83;7.93;;;;;;;2.44;100.00;100033.75;1631372;86;21102;-74
2021/11/23 02:06:14;;;;;;;15.37;6.17;;;;;;;2.43;100.00;100037.87;1631152;86;21564;-74
2021/11/23 02:08:41;;;;;;;23.00;8.50;;;;;;;2.42;100.00;100039.66;1626877;86;21034;-73
2021/11/23 02:11:08;;;;;;;27.40;11.47;;;;;;;2.41;100.00;100040.65;1608064;86;21059;-74
2021/11/23 02:13:35;;;;;;;13.23;5.67;;;;;;;2.41;100.00;100037.14;1655478;86;21039;-75
2021/11/23 02:16:02;;;;;;;11.17;5.33;;;;;;;2.38;100.00;100043.55;1664114;86;21030;-74
2021/11/23 02:18:30;;;;;;;10.37;5.30;;;;;;;2.36;100.00;100040.16;1628016;86;21528;-75
2021/11/23 02:20:57;;;;;;;9.70;4.97;;;;;;;2.34;100.00;100038.55;1655516;86;21563;-75
2021/11/23 02:23:23;;;;;;;14.30;5.37;;;;;;;2.32;100.00;100044.50;1628703;86;21473;-75
2021/11/23 02:25:51;;;;;;;7.90;4.20;;;;;;;2.29;100.00;100044.27;1635212;85;21511;-73
2021/11/23 02:28:18;;;;;;;7.10;3.80;;;;;;;2.26;100.00;100050.67;1653311;85;21030;-75
2021/11/23 02:30:54;;;;;;;7.00;3.90;;;;;;;2.25;100.00;100054.81;1652738;85;21157;-73
2021/11/23 02:33:23;;;;;;;9.97;3.90;;;;;;;2.24;100.00;100051.77;1655423;85;21007;-75
2021/11/23 02:35:53;;;;;;;7.90;3.87;;;;;;;2.22;100.00;100056.38;1667773;85;21497;-74
2021/11/23 02:38:22;;;;;;;7.43;4.10;;;;;;;2.18;100.00;100050.89;1667708;85;21066;-75
2021/11/23 02:40:49;;;;;;;11.57;4.80;;;;;;;2.18;100.00;100053.55;1667715;85;21630;-75
2021/11/23 02:43:16;;;;;;;8.83;4.30;;;;;;;2.16;100.00;100046.16;1658155;85;21063;-75
2021/11/23 02:45:43;;;;;;;6.67;4.00;;;;;;;2.16;100.00;100051.03;1646584;87;21062;-73
2021/11/23 02:48:11;;;;;;;8.90;4.30;;;;;;;2.15;100.00;100042.64;1666769;84;21563;-74
2021/11/23 02:50:39;;;;;;;9.63;4.33;;;;;;;2.17;100.00;100050.53;1663572;85;21022;-74
2021/11/23 02:53:06;;;;;;;8.97;4.67;;;;;;;2.16;100.00;100044.36;1661203;85;21015;-75
2021/11/23 02:55:36;;;;;;;10.77;5.43;;;;;;;2.15;100.00;100041.31;1661143;85;21010;-75
2021/11/23 02:58:05;;;;;;;12.03;5.60;;;;;;;2.15;100.00;100045.80;1648513;87;21047;-75
2021/11/23 03:00:33;;;;;;;8.97;4.70;;;;;;;2.13;100.00;100050.41;1644097;87;21607;-74
2021/11/23 03:02:59;;;;;;;9.47;4.80;;;;;;;2.11;100.00;100046.98;1661450;85;21595;-75
2021/11/23 03:05:27;;;;;;;7.77;4.30;;;;;;;2.10;100.00;100048.81;1666724;85;21503;-74
2021/11/23 03:07:56;;;;;;;9.17;4.53;;;;;;;2.12;100.00;100052.70;1663354;85;21514;-75
2021/11/23 03:10:27;;;;;;;6.93;4.20;;;;;;;2.11;100.00;100048.31;1667232;85;21051;-75
2021/11/23 03:12:55;;;;;;;7.50;4.13;;;;;;;2.11;100.00;100048.31;1642430;87;21054;-75
2021/11/23 03:15:25;;;;;;;10.53;4.93;;;;;;;2.10;100.00;100047.48;1608513;88;21041;-75
2021/11/23 03:17:53;;;;;;;7.70;4.13;;;;;;;2.10;100.00;100054.15;1640893;87;21329;-74
2021/11/23 03:20:21;;;;;;;10.17;4.43;;;;;;;2.09;100.00;100058.64;1660938;85;21010;-73
2021/11/23 03:22:49;;;;;;;6.20;3.90;;;;;;;2.12;100.00;100062.03;1667511;85;21039;-74
2021/11/23 03:25:17;;;;;;;8.73;4.60;;;;;;;2.11;100.00;100066.99;1666845;85;21039;-74
2021/11/23 03:27:44;;;;;;;10.90;4.90;;;;;;;2.12;100.00;100068.70;1687183;85;21110;-74
2021/11/23 03:30:14;;;;;;;8.63;4.40;;;;;;;2.11;100.00;100077.20;1655557;85;21020;-74
2021/11/23 03:32:42;;;;;;;10.60;5.07;;;;;;;2.09;100.00;100083.14;1688952;85;21026;-74
2021/11/23 03:35:09;;;;;;;24.57;11.80;;;;;;;2.08;100.00;100098.77;1653416;85;21157;-73
2021/11/23 03:37:37;;;;;;;28.13;14.20;;;;;;;2.07;100.00;100099.72;1657963;85;21071;-72
2021/11/23 03:40:06;;;;;;;113.10;61.80;;;;;;;2.07;100.00;100090.38;1653535;85;21027;-74
2021/11/23 03:42:33;;;;;;;114.87;65.70;;;;;;;2.07;100.00;100087.25;1655610;85;21524;-74
2021/11/23 03:45:01;;;;;;;53.87;30.77;;;;;;;2.07;100.00;100088.59;1655773;85;21059;-74
2021/11/23 03:47:30;;;;;;;78.63;44.80;;;;;;;2.07;100.00;100081.92;1683971;85;21090;-73
2021/11/23 03:49:58;;;;;;;51.50;31.83;;;;;;;2.04;100.00;100089.30;1656947;85;21094;-73
2021/11/23 03:52:26;;;;;;;26.13;15.17;;;;;;;2.02;100.00;100088.53;1688694;84;21022;-74
2021/11/23 03:54:53;;;;;;;11.17;6.23;;;;;;;2.01;100.00;100090.86;1657616;85;21015;-74
2021/11/23 03:57:20;;;;;;;10.40;5.30;;;;;;;1.99;100.00;100083.45;1655628;85;21046;-74
2021/11/23 03:59:48;;;;;;;8.67;4.90;;;;;;;1.98;100.00;100083.08;1686174;85;21050;-74
2021/11/23 04:02:17;;;;;;;7.80;4.60;;;;;;;1.98;100.00;100083.91;1655865;85;21496;-74
2021/11/23 04:04:44;;;;;;;6.97;4.53;;;;;;;1.98;100.00;100083.08;1685950;85;21022;-74
2021/11/23 04:07:11;;;;;;;7.73;4.33;;;;;;;1.94;100.00;100082.45;1688831;85;21040;-74
2021/11/23 04:09:38;;;;;;;8.53;4.50;;;;;;;1.94;100.00;100080.28;1655824;85;21543;-73
2021/11/23 04:12:07;;;;;;;6.37;4.23;;;;;;;1.92;100.00;100080.39;1656713;85;21539;-73
2021/11/23 04:14:35;;;;;;;6.80;4.43;;;;;;;1.88;100.00;100085.10;1658069;85;21197;-73
2021/11/23 04:17:02;;;;;;;10.53;5.13;;;;;;;1.87;100.00;100094.05;1657901;85;21087;-73
2021/11/23 04:19:29;;;;;;;21.97;8.47;;;;;;;1.88;100.00;100098.93;1686017;84;21038;-73
2021/11/23 04:21:57;;;;;;;15.27;7.97;;;;;;;1.85;100.00;100097.81;1688441;85;21035;-73
2021/11/23 04:24:24;;;;;;;14.90;6.50;;;;;;;1.83;100.00;100092.59;1689603;85;21582;-74
2021/11/23 04:26:53;;;;;;;22.83;12.40;;;;;;;1.83;100.00;100089.08;1676968;85;21015;-75
2021/11/23 04:29:20;;;;;;;17.07;7.40;;;;;;;1.80;100.00;100090.14;1642161;87;21019;-74
2021/11/23 04:31:47;;;;;;;15.67;7.97;;;;;;;1.75;100.00;100094.96;1589221;88;21584;-74
2021/11/23 04:34:15;;;;;;;17.83;8.87;;;;;;;1.73;100.00;100100.05;1612763;88;21123;-74
2021/11/23 04:36:43;;;;;;;15.10;6.60;;;;;;;1.69;100.00;100101.60;1611304;88;21149;-74
2021/11/23 04:39:11;;;;;;;19.93;12.70;;;;;;;1.66;100.00;100108.48;1609640;88;21581;-74
2021/11/23 04:41:39;;;;;;;22.20;12.23;;;;;;;1.64;100.00;100106.91;1585480;88;21552;-74
2021/11/23 04:44:07;;;;;;;15.63;7.00;;;;;;;1.63;100.00;100102.53;1584108;88;21595;-75
2021/11/23 04:46:34;;;;;;;16.93;9.70;;;;;;;1.60;100.00;100100.11;1578517;89;21062;-75
2021/11/23 04:49:01;;;;;;;16.53;8.97;;;;;;;1.60;100.00;100098.78;1556113;89;21070;-75
2021/11/23 04:51:30;;;;;;;11.43;5.27;;;;;;;1.58;100.00;100093.55;1585964;88;21111;-75
2021/11/23 04:53:56;;;;;;;17.00;8.00;;;;;;;1.57;100.00;100101.17;1583523;88;21072;-75
2021/11/23 04:56:24;;;;;;;19.13;9.70;;;;;;;1.58;100.00;100102.04;1581093;88;21072;-73
2021/11/23 04:58:51;;;;;;;54.97;34.50;;;;;;;1.59;100.00;100110.39;1605973;88;22256;-73
2021/11/23 05:01:18;;;;;;;70.53;41.53;;;;;;;1.59;100.00;100113.89;1576418;89;21088;-73
2021/11/23 05:03:50;;;;;;;31.23;18.13;;;;;;;1.60;100.00;100118.27;1582739;89;21118;-72
2021/11/23 05:06:20;;;;;;;;;;;;;;;1.61;100.00;100125.32;1613134;87;21128;-73
2021/11/23 05:08:52;;;;;;;12.30;5.97;;;;;;;1.64;100.00;100126.90;1602177;88;20133;-70
2021/11/23 05:11:21;;;;;;;13.67;6.00;;;;;;;1.64;100.00;100132.23;1589193;88;21099;-70
2021/11/23 05:13:48;;;;;;;11.57;5.90;;;;;;;1.64;100.00;100130.41;1609601;88;21079;-72
2021/11/23 05:16:15;;;;;;;63.70;23.33;;;;;;;1.66;100.00;100134.30;1612790;88;21052;-71
2021/11/23 05:18:42;;;;;;;46.53;17.33;;;;;;;1.65;100.00;100133.95;1612091;88;21051;-71
2021/11/23 05:21:11;;;;;;;27.97;11.73;;;;;;;1.65;100.00;100140.12;1610077;88;21516;-70
2021/11/23 05:23:38;;;;;;;13.00;6.27;;;;;;;1.68;100.00;100146.57;1612014;88;21130;-70
2021/11/23 05:26:05;;;;;;;11.27;5.77;;;;;;;1.69;100.00;100153.59;1618953;87;21046;-71
2021/11/23 05:28:32;;;;;;;14.63;5.83;;;;;;;1.71;100.00;100155.66;1606348;87;21103;-70
2021/11/23 05:31:00;;;;;;;52.40;21.13;;;;;;;1.73;100.00;100155.55;1624776;87;21127;-70
2021/11/23 05:33:27;;;;;;;78.87;31.47;;;;;;;1.74;100.00;100155.92;1608511;88;21068;-70
2021/11/23 05:35:54;;;;;;;31.00;13.07;;;;;;;1.77;100.00;100161.05;1586946;88;21150;-70
2021/11/23 05:38:21;;;;;;;20.90;8.77;;;;;;;1.79;100.00;100161.78;1609064;88;21047;-70
2021/11/23 05:40:48;;;;;;;15.53;6.70;;;;;;;1.81;100.00;100165.18;1610238;88;21621;-71
2021/11/23 05:43:15;;;;;;;14.57;6.30;;;;;;;1.83;100.00;100167.73;1612159;88;21099;-71
2021/11/23 05:45:43;;;;;;;14.77;6.50;;;;;;;1.85;100.00;100165.81;1613254;88;21619;-71
2021/11/23 05:48:10;;;;;;;17.40;6.90;;;;;;;1.86;100.00;100173.70;1610378;88;21555;-70
2021/11/23 05:50:37;;;;;;;17.13;6.17;;;;;;;1.87;100.00;100173.21;1613208;88;21103;-70
2021/11/23 05:53:04;;;;;;;13.77;5.80;;;;;;;1.92;100.00;100179.55;1612233;88;21019;-71
2021/11/23 05:55:33;;;;;;;13.33;5.80;;;;;;;1.93;100.00;100175.91;1586807;88;21200;-71
2021/11/23 05:58:00;;;;;;;13.43;6.93;;;;;;;1.96;100.00;100174.35;1608360;88;21028;-70
2021/11/23 06:00:28;;;;;;;11.93;5.90;;;;;;;1.98;100.00;100178.59;1611683;88;21075;-70
2021/11/23 06:02:55;;;;;;;24.20;11.47;;;;;;;2.02;100.00;100183.22;1611935;88;21105;-70
2021/11/23 06:05:22;;;;;;;32.00;15.27;;;;;;;2.07;100.00;100184.61;1578545;89;21069;-71
2021/11/23 06:07:49;;;;;;;36.23;16.53;;;;;;;2.11;100.00;100183.91;1602835;89;21075;-70
2021/11/23 06:10:17;;;;;;;50.47;25.33;;;;;;;2.14;100.00;100174.31;1630392;87;21575;-70
2021/11/23 06:12:44;;;;;;;44.73;30.70;;;;;;;2.17;100.00;100176.77;1622457;87;21065;-71
2021/11/23 06:15:14;;;;;;;41.10;25.60;;;;;;;2.20;100.00;100179.22;1626317;87;21037;-71
2021/11/23 06:17:41;;;;;;;26.40;14.33;;;;;;;2.19;100.00;100177.50;1638107;87;21050;-71
2021/11/23 06:20:10;;;;;;;22.17;12.70;;;;;;;2.22;100.00;100182.61;1636361;87;21046;-71
2021/11/23 06:22:37;;;;;;;23.67;13.13;;;;;;;2.23;100.00;100180.33;1635230;87;21029;-71
2021/11/23 06:25:07;;;;;;;51.83;33.77;;;;;;;2.23;100.00;100179.45;1630203;87;21153;-72
2021/11/23 06:27:36;;;;;;;27.20;14.70;;;;;;;2.24;100.00;100183.84;1638928;87;21048;-69
2021/11/23 06:30:05;;;;;;;27.67;17.50;;;;;;;2.24;100.00;100186.51;1640893;86;21037;-71
2021/11/23 06:32:33;;;;;;;34.53;16.73;;;;;;;2.22;100.00;100185.28;1630251;86;21495;-70
2021/11/23 06:35:00;;;;;;;60.50;39.67;;;;;;;2.21;100.00;100188.06;1629047;87;21023;-71
2021/11/23 06:37:27;;;;;;;52.00;33.73;;;;;;;2.20;100.00;100193.05;1639042;87;21054;-70
2021/11/23 06:39:54;;;;;;;43.57;26.47;;;;;;;2.16;100.00;100190.21;1609567;87;21039;-70
2021/11/23 06:42:21;;;;;;;51.40;34.47;;;;;;;2.16;100.00;100194.22;1621686;87;21014;-70
2021/11/23 06:44:49;;;;;;;52.93;32.10;;;;;;;2.16;100.00;100196.88;1637179;87;21078;-70
2021/11/23 06:47:16;;;;;;;44.43;24.07;;;;;;;2.17;100.00;100197.27;1635955;87;21621;-70
2021/11/23 06:49:42;;;;;;;33.30;17.70;;;;;;;2.19;100.00;100196.66;1616880;87;21115;-71
2021/11/23 06:52:10;;;;;;;34.67;18.67;;;;;;;2.24;100.00;100202.52;1598268;88;21138;-71
2021/11/23 06:54:37;;;;;;;38.53;20.70;;;;;;;2.30;100.00;100194.04;1607917;88;21080;-69
2021/11/23 06:57:05;;;;;;;38.87;21.60;;;;;;;2.35;100.00;100188.38;1584025;88;21083;-68
2021/11/23 06:59:32;;;;;;;37.33;21.17;;;;;;;2.41;100.00;100190.59;1584501;88;21073;-68
2021/11/23 07:01:59;;;;;;;39.13;19.53;;;;;;;2.40;100.00;100196.39;1605752;87;21063;-68
2021/11/23 07:04:26;;;;;;;37.30;20.67;;;;;;;2.42;100.00;100201.62;1627748;87;21031;-68
2021/11/23 07:06:54;;;;;;;41.77;23.53;;;;;;;2.42;100.00;100204.30;1616427;87;21572;-71
2021/11/23 07:09:21;;;;;;;52.27;26.27;;;;;;;2.42;100.00;100203.80;1617900;87;20996;-69
2021/11/23 07:11:48;;;;;;;53.23;26.47;;;;;;;2.44;100.00;100205.90;1621152;87;21086;-70
2021/11/23 07:14:16;;;;;;;56.07;27.13;;;;;;;2.43;100.00;100209.52;1621217;87;21037;-72
2021/11/23 07:16:45;;;;;;;61.47;28.90;;;;;;;2.41;100.00;100210.62;1615688;87;21075;-67
2021/11/23 07:19:13;;;;;;;54.40;26.10;;;;;;;2.40;100.00;100209.74;1616481;86;21074;-70
2021/11/23 07:21:40;;;;;;;57.53;27.33;;;;;;;2.42;100.00;100217.14;1673375;85;21105;-71
2021/11/23 07:24:07;;;;;;;48.60;21.80;;;;;;;2.43;100.00;100216.19;1669477;85;21003;-68
2021/11/23 07:26:37;;;;;;;47.90;24.57;;;;;;;2.42;100.00;100221.15;1622564;85;21536;-67
2021/11/23 07:29:03;;;;;;;46.90;23.17;;;;;;;2.41;100.00;100218.12;1671719;85;21055;-68
2021/11/23 07:31:31;;;;;;;96.60;58.53;;;;;;;2.39;100.00;100218.73;1667064;85;21042;-68
2021/11/23 07:34:00;;;;;;;160.07;98.77;;;;;;;2.43;100.00;100220.69;1626061;86;21059;-67
2021/11/23 07:36:27;;;;;;;87.67;58.70;;;;;;;2.47;100.00;100228.33;1592861;87;21079;-68
2021/11/23 07:38:56;;;;;;;51.60;32.67;;;;;;;2.54;100.00;100223.89;1625596;86;21563;-67
2021/11/23 07:41:23;;;;;;;36.57;21.73;;;;;;;2.61;100.00;100219.30;1600957;87;21476;-68
2021/11/23 07:43:51;;;;;;;37.00;21.83;;;;;;;2.71;100.00;100227.48;1594997;87;21053;-68
2021/11/23 07:46:31;;;;;;;56.33;31.50;;;;;;;2.75;100.00;100224.09;1601341;87;21136;-67
2021/11/23 07:48:58;;;;;;;35.57;18.20;;;;;;;2.82;100.00;100222.66;1671619;85;21065;-68
2021/11/23 07:51:25;;;;;;;40.10;21.60;;;;;;;2.89;100.00;100225.72;1625762;86;21030;-71
2021/11/23 07:53:53;;;;;;;43.07;19.37;;;;;;;2.96;100.00;100227.79;1663581;85;21010;-70
2021/11/23 07:56:20;;;;;;;42.57;20.60;;;;;;;3.03;100.00;100227.69;1653229;86;21053;-71
2021/11/23 07:58:47;;;;;;;41.17;22.17;;;;;;;3.06;100.00;100230.59;1646444;86;21087;-71
2021/11/23 08:01:16;;;;;;;55.23;29.77;;;;;;;3.07;100.00;100228.30;1638690;86;21011;-71
2021/11/23 08:03:43;;;;;;;41.33;20.03;;;;;;;3.10;100.00;100228.53;1646940;86;20996;-69
2021/11/23 08:06:11;;;;;;;52.47;26.17;;;;;;;3.12;100.00;100228.80;1655362;85;21105;-68
2021/11/23 08:08:39;;;;;;;40.03;23.30;;;;;;;3.12;100.00;100224.79;1645899;85;21031;-65
2021/11/23 08:11:06;;;;;;;63.57;40.00;;;;;;;3.17;100.00;100231.97;1653140;86;21048;-68
2021/11/23 08:13:34;;;;;;;57.23;36.20;;;;;;;3.20;100.00;100226.86;1659332;86;21080;-69
2021/11/23 08:16:03;;;;;;;42.73;25.10;;;;;;;3.22;100.00;100231.13;1660382;86;21107;-69
2021/11/23 08:18:33;;;;;;;46.30;25.57;;;;;;;3.25;100.00;100229.19;1643697;86;21034;-69
2021/11/23 08:21:02;;;;;;;59.93;30.97;;;;;;;3.23;100.00;100221.28;1588121;89;21171;-69
2021/11/23 08:23:30;;;;;;;63.03;36.47;;;;;;;3.19;100.00;100221.16;1600009;88;21058;-70
2021/11/23 08:25:58;;;;;;;47.43;28.30;;;;;;;3.18;100.00;100223.45;1627002;87;21191;-70
2021/11/23 08:28:30;;;;;;;42.33;24.53;;;;;;;3.20;100.00;100211.66;1626371;87;21156;-71
2021/11/23 08:30:58;;;;;;;48.93;30.87;;;;;;;3.25;100.00;100211.31;1631973;86;21575;-71
2021/11/23 08:33:26;;;;;;;38.70;22.07;;;;;;;3.33;100.00;100196.00;1638307;87;21055;-70
2021/11/23 08:35:53;;;;;;;45.43;32.63;;;;;;;3.45;100.00;100195.53;1620193;86;21087;-72
2021/11/23 08:38:20;;;;;;;39.07;22.73;;;;;;;3.59;100.00;100200.17;1632709;87;21038;-71
2021/11/23 08:40:47;;;;;;;40.17;26.50;;;;;;;3.75;100.00;100206.94;1632177;86;21538;-70
2021/11/23 08:43:14;;;;;;;41.70;24.27;;;;;;;3.85;100.00;100210.58;1608810;87;21056;-71
2021/11/23 08:45:45;;;;;;;43.97;27.33;;;;;;;3.96;100.00;100212.39;1634783;87;21121;-69
2021/11/23 08:48:11;;;;;;;43.97;22.63;;;;;;;4.08;100.00;100214.56;1608656;89;21072;-70
2021/11/23 08:50:38;;;;;;;33.30;16.23;;;;;;;4.17;100.00;100213.31;1629915;87;21114;-70
2021/11/23 08:53:08;;;;;;;41.23;23.10;;;;;;;4.24;100.00;100210.98;1605863;88;21085;-70
2021/11/23 08:55:36;;;;;;;33.80;19.47;;;;;;;4.39;100.00;100207.52;1605055;89;21094;-70
2021/11/23 08:58:08;;;;;;;42.97;23.60;;;;;;;4.51;100.00;100204.32;1627246;86;21028;-72
2021/11/23 09:00:35;;;;;;;35.97;19.10;;;;;;;4.54;100.00;100203.58;1628231;86;21548;-70
2021/11/23 09:03:02;;;;;;;38.70;19.43;;;;;;;4.52;100.00;100206.87;1631206;86;21036;-70
2021/11/23 09:05:32;;;;;;;42.77;23.50;;;;;;;4.50;100.00;100206.66;1622953;87;21116;-74
2021/11/23 09:08:01;;;;;;;50.53;26.67;;;;;;;4.45;100.00;100207.53;1622781;87;21085;-69
2021/11/23 09:10:30;;;;;;;38.80;20.60;;;;;;;4.42;100.00;100201.92;1634555;87;21101;-69
2021/11/23 09:12:59;;;;;;;38.67;20.70;;;;;;;4.43;100.00;100198.28;1627232;87;21089;-70
2021/11/23 09:15:26;;;;;;;33.07;20.83;;;;;;;4.44;100.00;100204.47;1624208;87;21070;-70
2021/11/23 09:17:55;;;;;;;30.63;16.53;;;;;;;4.46;100.00;100212.76;1677003;84;21041;-70
2021/11/23 09:20:22;;;;;;;41.00;23.37;;;;;;;4.55;100.00;100212.45;1646747;84;21010;-70
2021/11/23 09:22:49;;;;;;;31.83;15.23;;;;;;;4.63;100.00;100218.52;1672075;84;21102;-69
2021/11/23 09:25:16;;;;;;;27.63;14.30;;;;;;;4.64;100.00;100210.83;1651895;84;20997;-70
2021/11/23 09:27:43;;;;;;;23.80;11.23;;;;;;;4.63;100.00;100212.67;1659820;84;21203;-69
2021/11/23 09:30:13;;;;;;;30.30;15.00;;;;;;;4.62;100.00;100218.15;1680551;84;21081;-69
2021/11/23 09:32:40;;;;;;;27.57;15.83;;;;;;;4.62;100.00;100215.47;1632522;86;21049;-68
2021/11/23 09:35:11;;;;;;;28.67;14.13;;;;;;;4.57;100.00;100219.89;1654079;86;21558;-71
2021/11/23 09:37:37;;;;;;;31.90;14.40;;;;;;;4.50;100.00;100219.55;1641131;87;21069;-70
2021/11/23 09:40:06;;;;;;;24.30;12.47;;;;;;;4.37;100.00;100230.90;1622662;87;21116;-68
2021/11/23 09:42:33;;;;;;;22.67;10.83;;;;;;;4.28;100.00;100235.18;1641547;87;21664;-67
2021/11/23 09:45:03;;;;;;;23.67;11.40;;;;;;;4.26;100.00;100233.13;1640609;87;21581;-68
2021/11/23 09:47:30;;;;;;;25.90;14.27;;;;;;;4.29;100.00;100230.70;1616956;87;21078;-69
2021/11/23 09:50:01;;;;;;;20.40;11.03;;;;;;;4.35;100.00;100228.34;1628684;87;21054;-68
2021/11/23 09:52:29;;;;;;;21.27;11.20;;;;;;;4.34;100.00;100228.50;1639591;87;21689;-75
2021/11/23 09:54:56;;;;;;;21.57;10.43;;;;;;;4.27;100.00;100230.82;1631893;87;21057;-71
2021/11/23 09:57:23;;;;;;;21.03;10.70;;;;;;;4.21;100.00;100227.79;1645940;87;21550;-71
2021/11/23 09:59:50;;;;;;;25.37;14.23;;;;;;;4.22;100.00;100226.83;1630652;86;21037;-71
2021/11/23 10:02:29;;;;;;;16.50;8.50;;;;;;;4.24;100.00;100227.05;1644287;84;21105;-76
2021/11/23 10:05:07;;;;;;;28.47;15.73;;;;;;;4.20;100.00;100243.01;1690158;84;20970;-71
2021/11/23 10:07:39;;;;;;;21.17;10.93;;;;;;;4.15;100.00;100234.00;1690000;83;21649;-70
2021/11/23 10:10:24;;;;;;;29.25;19.32;;;;;;;4.21;100.00;100237.16;1695824;84;21041;-74
2021/11/23 10:13:00;;;;;;;22.07;10.83;;;;;;;4.24;100.00;100229.73;1650175;85;21051;-73
2021/11/23 10:15:34;;;;;;;35.03;18.77;;;;;;;4.26;100.00;100238.48;1686721;83;21539;-70
2021/11/23 10:18:17;;;;;;;24.10;14.43;;;;;;;4.26;100.00;100234.95;1652655;84;21069;-70
2021/11/23 10:20:55;;;;;;;23.03;11.13;;;;;;;4.28;100.00;100232.50;1618322;86;21568;-70
2021/11/23 10:23:47;;;;;;;33.73;19.67;;;;;;;4.27;100.00;100232.66;1625716;84;21038;-71
2021/11/23 10:26:23;;;;;;;30.03;17.23;;;;;;;4.20;100.00;100234.98;1694502;83;21040;-71
2021/11/23 10:29:05;;;;;;;28.17;14.87;;;;;;;4.11;100.00;100229.89;1657541;84;21057;-70
2021/11/23 10:31:42;;;;;;;31.33;17.67;;;;;;;4.11;100.00;100237.07;1672157;84;21026;-70
2021/11/23 10:34:12;;;;;;;45.40;29.47;;;;;;;4.12;100.00;100232.91;1676507;84;21034;-70
2021/11/23 10:36:44;;;;;;;29.83;16.57;;;;;;;4.11;100.00;100231.22;1649893;84;21104;-71
2021/11/23 10:39:21;;;;;;;29.23;15.48;;;;;;;4.11;100.00;100228.55;1649611;84;21025;-68
2021/11/23 10:41:55;;;;;;;19.83;9.67;;;;;;;4.07;100.00;100230.25;1652929;84;21025;-69
2021/11/23 10:44:31;;;;;;;22.47;11.50;;;;;;;3.99;100.00;100233.55;1628706;87;21140;-68
2021/11/23 10:47:04;;;;;;;25.73;15.47;;;;;;;3.93;100.00;100228.22;1618832;87;21117;-71
2021/11/23 10:49:34;;;;;;;42.67;32.47;;;;;;;3.95;100.00;100228.09;1616588;88;21084;-69
2021/11/23 10:52:01;;;;;;;73.20;44.87;;;;;;;3.96;100.00;100224.42;1598322;88;21106;-69
2021/11/23 10:54:33;;;;;;;66.20;45.30;;;;;;;4.07;100.00;100221.75;1588986;88;21754;-67
2021/11/23 10:57:08;;;;;;;28.87;17.87;;;;;;;4.18;100.00;100224.39;1594285;88;21590;-69
2021/11/23 10:59:38;;;;;;;23.63;14.73;;;;;;;4.24;100.00;100223.53;1538259;92;21081;-70
2021/11/23 11:02:06;;;;;;;35.47;24.23;;;;;;;4.26;100.00;100216.22;1542326;92;21110;-71
2021/11/23 11:04:35;;;;;;;22.47;11.67;;;;;;;4.26;100.00;100217.06;1537723;92;21085;-71
2021/11/23 11:07:03;;;;;;;24.47;15.73;;;;;;;4.24;100.00;100214.16;1546549;92;21303;-72
2021/11/23 11:09:32;;;;;;;21.33;11.20;;;;;;;4.19;100.00;100230.59;1543355;92;21145;-69
2021/11/23 11:11:59;;;;;;;21.23;11.37;;;;;;;4.10;100.00;100225.49;1540673;92;21213;-68
2021/11/23 11:14:28;;;;;;;21.30;11.93;;;;;;;3.97;100.00;100224.80;1539036;91;21098;-67
2021/11/23 11:16:57;;;;;;;21.43;10.37;;;;;;;3.85;100.00;100227.97;1537183;92;21109;-68
2021/11/23 11:19:26;;;;;;;26.80;14.10;;;;;;;3.76;100.00;100228.72;1538726;92;21091;-72